sensor_id;sensor_type;location;lat;lon;timestamp;P1;durP1;ratioP1;P2;durP2;ratioP2
9986;SDS011;5033;46.310;11.214;2023-11-19T00:00:32;2.88;;;2.78;;
9986;SDS011;5033;46.310;11.214;2023-11-19T00:02:59;3.05;;;2.85;;
9986;SDS011;5033;46.310;11.214;2023-11-19T00:05:26;3.03;;;2.83;;
9986;SDS011;5033;46.310;11.214;2023-11-19T00:07:54;2.80;;;2.60;;
9986;SDS011;5033;46.310;11.214;2023-11-19T00:10:21;3.03;;;2.83;;
9986;SDS011;5033;46.310;11.214;2023-11-19T00:12:48;3.50;;;3.20;;
9986;SDS011;5033;46.310;11.214;2023-11-19T00:15:16;3.28;;;3.08;;
9986;SDS011;5033;46.310;11.214;2023-11-19T00:17:46;3.40;;;3.10;;
9986;SDS011;5033;46.310;11.214;2023-11-19T00:20:13;3.35;;;3.05;;
9986;SDS011;5033;46.310;11.214;2023-11-19T00:22:42;3.33;;;2.70;;
9986;SDS011;5033;46.310;11.214;2023-11-19T00:25:09;3.15;;;2.85;;
9986;SDS011;5033;46.310;11.214;2023-11-19T00:27:36;2.95;;;2.75;;
9986;SDS011;5033;46.310;11.214;2023-11-19T00:30:04;3.10;;;2.90;;
9986;SDS011;5033;46.310;11.214;2023-11-19T00:32:31;3.20;;;3.00;;
9986;SDS011;5033;46.310;11.214;2023-11-19T00:35:00;3.00;;;2.80;;
9986;SDS011;5033;46.310;11.214;2023-11-19T00:37:28;3.00;;;2.80;;
9986;SDS011;5033;46.310;11.214;2023-11-19T00:39:54;3.08;;;2.88;;
9986;SDS011;5033;46.310;11.214;2023-11-19T00:42:22;3.10;;;2.80;;
9986;SDS011;5033;46.310;11.214;2023-11-19T00:44:49;2.65;;;2.45;;
9986;SDS011;5033;46.310;11.214;2023-11-19T00:47:16;3.20;;;3.00;;
9986;SDS011;5033;46.310;11.214;2023-11-19T00:49:45;3.00;;;2.80;;
9986;SDS011;5033;46.310;11.214;2023-11-19T00:52:14;3.00;;;2.80;;
9986;SDS011;5033;46.310;11.214;2023-11-19T00:54:41;2.55;;;2.35;;
9986;SDS011;5033;46.310;11.214;2023-11-19T00:57:08;3.08;;;2.88;;
9986;SDS011;5033;46.310;11.214;2023-11-19T00:59:35;2.88;;;2.67;;
9986;SDS011;5033;46.310;11.214;2023-11-19T01:02:03;3.05;;;2.85;;
9986;SDS011;5033;46.310;11.214;2023-11-19T01:04:33;2.90;;;2.70;;
9986;SDS011;5033;46.310;11.214;2023-11-19T01:07:01;2.60;;;2.50;;
9986;SDS011;5033;46.310;11.214;2023-11-19T01:09:31;2.92;;;2.72;;
9986;SDS011;5033;46.310;11.214;2023-11-19T01:11:59;2.85;;;2.65;;
9986;SDS011;5033;46.310;11.214;2023-11-19T01:14:26;2.70;;;2.60;;
9986;SDS011;5033;46.310;11.214;2023-11-19T01:16:54;2.80;;;2.63;;
9986;SDS011;5033;46.310;11.214;2023-11-19T01:19:21;2.72;;;2.53;;
9986;SDS011;5033;46.310;11.214;2023-11-19T01:21:49;2.80;;;2.60;;
9986;SDS011;5033;46.310;11.214;2023-11-19T01:24:16;2.55;;;2.38;;
9986;SDS011;5033;46.310;11.214;2023-11-19T01:26:44;2.40;;;2.30;;
9986;SDS011;5033;46.310;11.214;2023-11-19T01:29:12;2.20;;;2.10;;
9986;SDS011;5033;46.310;11.214;2023-11-19T01:31:40;2.63;;;2.42;;
9986;SDS011;5033;46.310;11.214;2023-11-19T01:34:07;2.75;;;2.65;;
9986;SDS011;5033;46.310;11.214;2023-11-19T01:36:34;2.90;;;2.70;;
9986;SDS011;5033;46.310;11.214;2023-11-19T01:39:01;2.45;;;2.35;;
9986;SDS011;5033;46.310;11.214;2023-11-19T01:41:29;2.50;;;2.40;;
9986;SDS011;5033;46.310;11.214;2023-11-19T01:44:01;2.63;;;2.53;;
9986;SDS011;5033;46.310;11.214;2023-11-19T01:46:28;2.58;;;2.47;;
9986;SDS011;5033;46.310;11.214;2023-11-19T01:48:57;2.45;;;2.35;;
9986;SDS011;5033;46.310;11.214;2023-11-19T01:51:25;2.60;;;2.50;;
9986;SDS011;5033;46.310;11.214;2023-11-19T01:53:53;2.35;;;2.25;;
9986;SDS011;5033;46.310;11.214;2023-11-19T01:56:20;2.97;;;2.78;;
9986;SDS011;5033;46.310;11.214;2023-11-19T01:58:48;3.00;;;2.80;;
9986;SDS011;5033;46.310;11.214;2023-11-19T02:01:18;2.67;;;2.58;;
9986;SDS011;5033;46.310;11.214;2023-11-19T02:03:45;2.70;;;2.60;;
9986;SDS011;5033;46.310;11.214;2023-11-19T02:06:12;2.53;;;2.42;;
9986;SDS011;5033;46.310;11.214;2023-11-19T02:08:39;2.83;;;2.63;;
9986;SDS011;5033;46.310;11.214;2023-11-19T02:11:06;2.75;;;2.55;;
9986;SDS011;5033;46.310;11.214;2023-11-19T02:13:33;2.42;;;2.33;;
9986;SDS011;5033;46.310;11.214;2023-11-19T02:16:01;3.22;;;3.03;;
9986;SDS011;5033;46.310;11.214;2023-11-19T02:18:30;2.67;;;2.58;;
9986;SDS011;5033;46.310;11.214;2023-11-19T02:20:58;3.17;;;2.88;;
9986;SDS011;5033;46.310;11.214;2023-11-19T02:23:26;2.45;;;2.35;;
9986;SDS011;5033;46.310;11.214;2023-11-19T02:26:01;2.40;;;2.30;;
9986;SDS011;5033;46.310;11.214;2023-11-19T02:28:40;2.70;;;2.60;;
9986;SDS011;5033;46.310;11.214;2023-11-19T02:31:08;3.10;;;2.90;;
9986;SDS011;5033;46.310;11.214;2023-11-19T02:33:36;2.20;;;2.10;;
9986;SDS011;5033;46.310;11.214;2023-11-19T02:36:04;2.40;;;2.30;;
9986;SDS011;5033;46.310;11.214;2023-11-19T02:38:32;2.63;;;2.53;;
9986;SDS011;5033;46.310;11.214;2023-11-19T02:40:59;2.22;;;2.13;;
9986;SDS011;5033;46.310;11.214;2023-11-19T02:43:30;2.65;;;2.53;;
9986;SDS011;5033;46.310;11.214;2023-11-19T02:45:59;2.30;;;2.20;;
9986;SDS011;5033;46.310;11.214;2023-11-19T02:48:27;2.60;;;2.50;;
9986;SDS011;5033;46.310;11.214;2023-11-19T02:50:54;2.30;;;2.20;;
9986;SDS011;5033;46.310;11.214;2023-11-19T02:53:23;2.53;;;2.42;;
9986;SDS011;5033;46.310;11.214;2023-11-19T02:55:52;2.42;;;2.33;;
9986;SDS011;5033;46.310;11.214;2023-11-19T02:58:26;2.40;;;2.30;;
9986;SDS011;5033;46.310;11.214;2023-11-19T03:00:53;2.65;;;2.55;;
9986;SDS011;5033;46.310;11.214;2023-11-19T03:03:26;2.78;;;2.67;;
9986;SDS011;5033;46.310;11.214;2023-11-19T03:06:03;2.30;;;2.20;;
9986;SDS011;5033;46.310;11.214;2023-11-19T03:08:31;2.40;;;2.30;;
9986;SDS011;5033;46.310;11.214;2023-11-19T03:10:58;2.50;;;2.40;;
9986;SDS011;5033;46.310;11.214;2023-11-19T03:13:25;2.63;;;2.42;;
9986;SDS011;5033;46.310;11.214;2023-11-19T03:15:52;2.60;;;2.50;;
9986;SDS011;5033;46.310;11.214;2023-11-19T03:18:20;2.35;;;2.25;;
9986;SDS011;5033;46.310;11.214;2023-11-19T03:20:48;2.70;;;2.60;;
9986;SDS011;5033;46.310;11.214;2023-11-19T03:23:15;2.70;;;2.60;;
9986;SDS011;5033;46.310;11.214;2023-11-19T03:25:42;2.70;;;2.60;;
9986;SDS011;5033;46.310;11.214;2023-11-19T03:28:09;2.83;;;2.72;;
9986;SDS011;5033;46.310;11.214;2023-11-19T03:30:37;2.35;;;2.25;;
9986;SDS011;5033;46.310;11.214;2023-11-19T03:33:04;2.60;;;2.50;;
9986;SDS011;5033;46.310;11.214;2023-11-19T03:35:31;2.55;;;2.35;;
9986;SDS011;5033;46.310;11.214;2023-11-19T03:38:00;2.45;;;2.35;;
9986;SDS011;5033;46.310;11.214;2023-11-19T03:40:27;2.50;;;2.40;;
9986;SDS011;5033;46.310;11.214;2023-11-19T03:42:55;2.50;;;2.40;;
9986;SDS011;5033;46.310;11.214;2023-11-19T03:45:23;2.20;;;2.10;;
9986;SDS011;5033;46.310;11.214;2023-11-19T03:47:50;2.58;;;2.38;;
9986;SDS011;5033;46.310;11.214;2023-11-19T03:50:17;2.75;;;2.60;;
9986;SDS011;5033;46.310;11.214;2023-11-19T03:52:45;2.40;;;2.30;;
9986;SDS011;5033;46.310;11.214;2023-11-19T03:55:13;2.42;;;2.33;;
9986;SDS011;5033;46.310;11.214;2023-11-19T03:57:40;2.70;;;2.60;;
9986;SDS011;5033;46.310;11.214;2023-11-19T04:00:08;3.22;;;3.03;;
9986;SDS011;5033;46.310;11.214;2023-11-19T04:02:35;2.83;;;2.63;;
9986;SDS011;5033;46.310;11.214;2023-11-19T04:05:02;2.53;;;2.42;;
9986;SDS011;5033;46.310;11.214;2023-11-19T04:07:30;2.50;;;2.40;;
9986;SDS011;5033;46.310;11.214;2023-11-19T04:09:57;2.70;;;2.50;;
9986;SDS011;5033;46.310;11.214;2023-11-19T04:12:26;2.70;;;2.60;;
9986;SDS011;5033;46.310;11.214;2023-11-19T04:14:53;2.30;;;2.20;;
9986;SDS011;5033;46.310;11.214;2023-11-19T04:17:21;2.50;;;2.40;;
9986;SDS011;5033;46.310;11.214;2023-11-19T04:19:48;2.83;;;2.63;;
9986;SDS011;5033;46.310;11.214;2023-11-19T04:22:15;2.85;;;2.65;;
9986;SDS011;5033;46.310;11.214;2023-11-19T04:24:42;2.63;;;2.53;;
9986;SDS011;5033;46.310;11.214;2023-11-19T04:27:10;2.80;;;2.60;;
9986;SDS011;5033;46.310;11.214;2023-11-19T04:29:39;2.45;;;2.35;;
9986;SDS011;5033;46.310;11.214;2023-11-19T04:32:06;3.03;;;2.85;;
9986;SDS011;5033;46.310;11.214;2023-11-19T04:34:34;2.60;;;2.50;;
9986;SDS011;5033;46.310;11.214;2023-11-19T04:37:02;2.78;;;2.67;;
9986;SDS011;5033;46.310;11.214;2023-11-19T04:39:29;2.70;;;2.58;;
9986;SDS011;5033;46.310;11.214;2023-11-19T04:41:56;2.90;;;2.70;;
9986;SDS011;5033;46.310;11.214;2023-11-19T04:44:24;2.88;;;2.70;;
9986;SDS011;5033;46.310;11.214;2023-11-19T04:46:52;2.65;;;2.55;;
9986;SDS011;5033;46.310;11.214;2023-11-19T04:49:19;2.97;;;2.78;;
9986;SDS011;5033;46.310;11.214;2023-11-19T04:51:47;3.35;;;3.13;;
9986;SDS011;5033;46.310;11.214;2023-11-19T04:54:13;3.38;;;3.15;;
9986;SDS011;5033;46.310;11.214;2023-11-19T04:56:40;3.80;;;3.50;;
9986;SDS011;5033;46.310;11.214;2023-11-19T04:59:11;3.20;;;3.00;;
9986;SDS011;5033;46.310;11.214;2023-11-19T05:01:39;3.28;;;3.08;;
9986;SDS011;5033;46.310;11.214;2023-11-19T05:04:07;3.13;;;3.00;;
9986;SDS011;5033;46.310;11.214;2023-11-19T05:06:34;2.75;;;2.65;;
9986;SDS011;5033;46.310;11.214;2023-11-19T05:09:02;2.90;;;2.70;;
9986;SDS011;5033;46.310;11.214;2023-11-19T05:11:32;2.90;;;2.70;;
9986;SDS011;5033;46.310;11.214;2023-11-19T05:13:59;2.40;;;2.30;;
9986;SDS011;5033;46.310;11.214;2023-11-19T05:16:26;2.60;;;2.50;;
9986;SDS011;5033;46.310;11.214;2023-11-19T05:18:53;3.67;;;3.05;;
9986;SDS011;5033;46.310;11.214;2023-11-19T05:21:21;3.25;;;3.05;;
9986;SDS011;5033;46.310;11.214;2023-11-19T05:23:48;2.97;;;2.78;;
9986;SDS011;5033;46.310;11.214;2023-11-19T05:26:18;3.10;;;2.90;;
9986;SDS011;5033;46.310;11.214;2023-11-19T05:28:46;2.70;;;2.60;;
9986;SDS011;5033;46.310;11.214;2023-11-19T05:31:14;2.67;;;2.58;;
9986;SDS011;5033;46.310;11.214;2023-11-19T05:33:42;3.08;;;2.88;;
9986;SDS011;5033;46.310;11.214;2023-11-19T05:36:10;3.08;;;2.88;;
9986;SDS011;5033;46.310;11.214;2023-11-19T05:38:40;3.28;;;3.08;;
9986;SDS011;5033;46.310;11.214;2023-11-19T05:41:07;3.30;;;3.03;;
9986;SDS011;5033;46.310;11.214;2023-11-19T05:43:34;3.40;;;3.20;;
9986;SDS011;5033;46.310;11.214;2023-11-19T05:46:01;3.05;;;2.78;;
9986;SDS011;5033;46.310;11.214;2023-11-19T05:48:28;3.28;;;3.08;;
9986;SDS011;5033;46.310;11.214;2023-11-19T05:50:55;3.30;;;3.10;;
9986;SDS011;5033;46.310;11.214;2023-11-19T05:53:22;3.10;;;2.90;;
9986;SDS011;5033;46.310;11.214;2023-11-19T05:55:51;2.80;;;2.60;;
9986;SDS011;5033;46.310;11.214;2023-11-19T05:58:22;2.70;;;2.60;;
9986;SDS011;5033;46.310;11.214;2023-11-19T06:00:51;2.83;;;2.72;;
9986;SDS011;5033;46.310;11.214;2023-11-19T06:03:18;3.08;;;2.97;;
9986;SDS011;5033;46.310;11.214;2023-11-19T06:05:46;2.55;;;2.45;;
9986;SDS011;5033;46.310;11.214;2023-11-19T06:08:13;2.38;;;2.28;;
9986;SDS011;5033;46.310;11.214;2023-11-19T06:10:41;2.45;;;2.35;;
9986;SDS011;5033;46.310;11.214;2023-11-19T06:13:10;2.45;;;2.35;;
9986;SDS011;5033;46.310;11.214;2023-11-19T06:15:36;2.60;;;2.50;;
9986;SDS011;5033;46.310;11.214;2023-11-19T06:18:04;2.88;;;2.67;;
9986;SDS011;5033;46.310;11.214;2023-11-19T06:20:31;2.92;;;2.72;;
9986;SDS011;5033;46.310;11.214;2023-11-19T06:22:58;2.72;;;2.53;;
9986;SDS011;5033;46.310;11.214;2023-11-19T06:25:26;2.58;;;2.47;;
9986;SDS011;5033;46.310;11.214;2023-11-19T06:27:53;2.60;;;2.50;;
9986;SDS011;5033;46.310;11.214;2023-11-19T06:30:21;2.40;;;2.30;;
9986;SDS011;5033;46.310;11.214;2023-11-19T06:32:49;2.50;;;2.30;;
9986;SDS011;5033;46.310;11.214;2023-11-19T06:35:16;2.90;;;2.70;;
9986;SDS011;5033;46.310;11.214;2023-11-19T06:37:43;3.00;;;2.80;;
9986;SDS011;5033;46.310;11.214;2023-11-19T06:40:11;3.15;;;2.95;;
9986;SDS011;5033;46.310;11.214;2023-11-19T06:42:38;2.97;;;2.88;;
9986;SDS011;5033;46.310;11.214;2023-11-19T06:45:05;3.10;;;2.90;;
9986;SDS011;5033;46.310;11.214;2023-11-19T06:47:34;3.70;;;3.42;;
9986;SDS011;5033;46.310;11.214;2023-11-19T06:50:01;4.93;;;4.10;;
9986;SDS011;5033;46.310;11.214;2023-11-19T06:52:30;3.72;;;3.35;;
9986;SDS011;5033;46.310;11.214;2023-11-19T06:54:57;4.05;;;3.70;;
9986;SDS011;5033;46.310;11.214;2023-11-19T06:57:24;3.47;;;3.22;;
9986;SDS011;5033;46.310;11.214;2023-11-19T06:59:53;3.67;;;3.47;;
9986;SDS011;5033;46.310;11.214;2023-11-19T07:02:20;3.55;;;3.35;;
9986;SDS011;5033;46.310;11.214;2023-11-19T07:04:48;3.47;;;3.17;;
9986;SDS011;5033;46.310;11.214;2023-11-19T07:07:15;3.25;;;3.05;;
9986;SDS011;5033;46.310;11.214;2023-11-19T07:09:42;3.45;;;3.20;;
9986;SDS011;5033;46.310;11.214;2023-11-19T07:12:09;4.53;;;4.15;;
9986;SDS011;5033;46.310;11.214;2023-11-19T07:14:38;3.80;;;3.58;;
9986;SDS011;5033;46.310;11.214;2023-11-19T07:17:05;4.10;;;3.75;;
9986;SDS011;5033;46.310;11.214;2023-11-19T07:19:33;3.90;;;3.70;;
9986;SDS011;5033;46.310;11.214;2023-11-19T07:22:02;4.15;;;3.85;;
9986;SDS011;5033;46.310;11.214;2023-11-19T07:24:29;3.92;;;3.63;;
9986;SDS011;5033;46.310;11.214;2023-11-19T07:26:56;4.07;;;3.78;;
9986;SDS011;5033;46.310;11.214;2023-11-19T07:29:23;4.88;;;4.45;;
9986;SDS011;5033;46.310;11.214;2023-11-19T07:31:51;4.80;;;4.40;;
9986;SDS011;5033;46.310;11.214;2023-11-19T07:34:18;4.97;;;4.57;;
9986;SDS011;5033;46.310;11.214;2023-11-19T07:36:46;4.15;;;3.85;;
9986;SDS011;5033;46.310;11.214;2023-11-19T07:39:14;4.10;;;3.80;;
9986;SDS011;5033;46.310;11.214;2023-11-19T07:41:41;4.00;;;3.70;;
9986;SDS011;5033;46.310;11.214;2023-11-19T07:44:08;4.10;;;3.80;;
9986;SDS011;5033;46.310;11.214;2023-11-19T07:46:36;4.40;;;4.03;;
9986;SDS011;5033;46.310;11.214;2023-11-19T07:49:03;4.40;;;4.10;;
9986;SDS011;5033;46.310;11.214;2023-11-19T07:51:30;3.90;;;3.60;;
9986;SDS011;5033;46.310;11.214;2023-11-19T07:53:57;3.95;;;3.65;;
9986;SDS011;5033;46.310;11.214;2023-11-19T07:56:25;4.07;;;3.67;;
9986;SDS011;5033;46.310;11.214;2023-11-19T07:58:52;4.18;;;3.65;;
9986;SDS011;5033;46.310;11.214;2023-11-19T08:01:19;3.80;;;3.50;;
9986;SDS011;5033;46.310;11.214;2023-11-19T08:03:46;3.70;;;3.40;;
9986;SDS011;5033;46.310;11.214;2023-11-19T08:06:13;3.78;;;3.47;;
9986;SDS011;5033;46.310;11.214;2023-11-19T08:08:40;3.63;;;3.33;;
9986;SDS011;5033;46.310;11.214;2023-11-19T08:11:08;4.30;;;3.92;;
9986;SDS011;5033;46.310;11.214;2023-11-19T08:13:36;4.15;;;3.80;;
9986;SDS011;5033;46.310;11.214;2023-11-19T08:16:03;3.97;;;3.45;;
9986;SDS011;5033;46.310;11.214;2023-11-19T08:18:31;4.35;;;3.95;;
9986;SDS011;5033;46.310;11.214;2023-11-19T08:20:57;3.80;;;3.50;;
9986;SDS011;5033;46.310;11.214;2023-11-19T08:23:25;4.10;;;3.67;;
9986;SDS011;5033;46.310;11.214;2023-11-19T08:25:53;4.32;;;3.92;;
9986;SDS011;5033;46.310;11.214;2023-11-19T08:28:20;4.05;;;3.75;;
9986;SDS011;5033;46.310;11.214;2023-11-19T08:30:49;4.00;;;3.70;;
9986;SDS011;5033;46.310;11.214;2023-11-19T08:33:15;3.83;;;3.53;;
9986;SDS011;5033;46.310;11.214;2023-11-19T08:35:42;3.80;;;3.50;;
9986;SDS011;5033;46.310;11.214;2023-11-19T08:38:10;3.90;;;3.60;;
9986;SDS011;5033;46.310;11.214;2023-11-19T08:40:37;4.32;;;3.92;;
9986;SDS011;5033;46.310;11.214;2023-11-19T08:43:04;4.78;;;4.38;;
9986;SDS011;5033;46.310;11.214;2023-11-19T08:45:31;4.70;;;4.30;;
9986;SDS011;5033;46.310;11.214;2023-11-19T08:48:00;4.85;;;4.43;;
9986;SDS011;5033;46.310;11.214;2023-11-19T08:50:27;4.85;;;4.45;;
9986;SDS011;5033;46.310;11.214;2023-11-19T08:52:54;4.75;;;4.30;;
9986;SDS011;5033;46.310;11.214;2023-11-19T08:55:21;4.72;;;4.32;;
9986;SDS011;5033;46.310;11.214;2023-11-19T08:57:48;4.43;;;4.10;;
9986;SDS011;5033;46.310;11.214;2023-11-19T09:00:15;5.35;;;4.85;;
9986;SDS011;5033;46.310;11.214;2023-11-19T09:02:43;4.82;;;4.43;;
9986;SDS011;5033;46.310;11.214;2023-11-19T09:05:11;5.68;;;5.18;;
9986;SDS011;5033;46.310;11.214;2023-11-19T09:07:38;5.35;;;4.88;;
9986;SDS011;5033;46.310;11.214;2023-11-19T09:10:05;5.28;;;4.88;;
9986;SDS011;5033;46.310;11.214;2023-11-19T09:12:33;4.50;;;4.10;;
9986;SDS011;5033;46.310;11.214;2023-11-19T09:15:01;4.75;;;4.35;;
9986;SDS011;5033;46.310;11.214;2023-11-19T09:17:28;4.10;;;3.80;;
9986;SDS011;5033;46.310;11.214;2023-11-19T09:19:55;3.55;;;3.25;;
9986;SDS011;5033;46.310;11.214;2023-11-19T09:22:23;3.88;;;3.58;;
9986;SDS011;5033;46.310;11.214;2023-11-19T09:24:50;4.28;;;3.60;;
9986;SDS011;5033;46.310;11.214;2023-11-19T09:27:17;3.42;;;3.13;;
9986;SDS011;5033;46.310;11.214;2023-11-19T09:29:44;4.22;;;3.83;;
9986;SDS011;5033;46.310;11.214;2023-11-19T09:32:14;3.88;;;3.58;;
9986;SDS011;5033;46.310;11.214;2023-11-19T09:34:41;3.72;;;3.42;;
9986;SDS011;5033;46.310;11.214;2023-11-19T09:37:07;3.92;;;3.63;;
9986;SDS011;5033;46.310;11.214;2023-11-19T09:39:36;3.58;;;3.28;;
9986;SDS011;5033;46.310;11.214;2023-11-19T09:42:03;3.80;;;3.50;;
9986;SDS011;5033;46.310;11.214;2023-11-19T09:44:31;3.55;;;3.25;;
9986;SDS011;5033;46.310;11.214;2023-11-19T09:46:58;3.72;;;3.42;;
9986;SDS011;5033;46.310;11.214;2023-11-19T09:49:26;3.95;;;3.55;;
9986;SDS011;5033;46.310;11.214;2023-11-19T09:51:53;3.67;;;3.45;;
9986;SDS011;5033;46.310;11.214;2023-11-19T09:54:20;3.72;;;3.40;;
9986;SDS011;5033;46.310;11.214;2023-11-19T09:56:49;4.20;;;3.90;;
9986;SDS011;5033;46.310;11.214;2023-11-19T09:59:16;3.58;;;3.30;;
9986;SDS011;5033;46.310;11.214;2023-11-19T10:01:45;4.50;;;3.10;;
9986;SDS011;5033;46.310;11.214;2023-11-19T10:04:13;4.80;;;4.30;;
9986;SDS011;5033;46.310;11.214;2023-11-19T10:06:42;4.07;;;3.78;;
9986;SDS011;5033;46.310;11.214;2023-11-19T10:09:09;4.45;;;3.53;;
9986;SDS011;5033;46.310;11.214;2023-11-19T10:11:40;4.57;;;4.18;;
9986;SDS011;5033;46.310;11.214;2023-11-19T10:14:08;3.90;;;3.50;;
9986;SDS011;5033;46.310;11.214;2023-11-19T10:16:36;3.83;;;3.53;;
9986;SDS011;5033;46.310;11.214;2023-11-19T10:19:05;4.03;;;3.72;;
9986;SDS011;5033;46.310;11.214;2023-11-19T10:21:32;4.40;;;4.00;;
9986;SDS011;5033;46.310;11.214;2023-11-19T10:23:59;3.92;;;3.60;;
9986;SDS011;5033;46.310;11.214;2023-11-19T10:26:26;4.22;;;3.92;;
9986;SDS011;5033;46.310;11.214;2023-11-19T10:28:54;4.70;;;4.30;;
9986;SDS011;5033;46.310;11.214;2023-11-19T10:31:23;3.72;;;3.42;;
9986;SDS011;5033;46.310;11.214;2023-11-19T10:33:51;5.22;;;4.00;;
9986;SDS011;5033;46.310;11.214;2023-11-19T10:36:18;5.07;;;4.10;;
9986;SDS011;5033;46.310;11.214;2023-11-19T10:38:51;4.18;;;3.70;;
9986;SDS011;5033;46.310;11.214;2023-11-19T10:41:28;4.45;;;4.05;;
9986;SDS011;5033;46.310;11.214;2023-11-19T10:43:56;3.90;;;3.60;;
9986;SDS011;5033;46.310;11.214;2023-11-19T10:46:35;3.88;;;3.47;;
9986;SDS011;5033;46.310;11.214;2023-11-19T10:49:04;3.20;;;3.00;;
9986;SDS011;5033;46.310;11.214;2023-11-19T10:51:31;3.63;;;3.33;;
9986;SDS011;5033;46.310;11.214;2023-11-19T10:54:01;3.88;;;3.53;;
9986;SDS011;5033;46.310;11.214;2023-11-19T10:56:30;3.25;;;3.05;;
9986;SDS011;5033;46.310;11.214;2023-11-19T10:58:59;3.58;;;3.33;;
9986;SDS011;5033;46.310;11.214;2023-11-19T11:01:32;3.45;;;3.15;;
9986;SDS011;5033;46.310;11.214;2023-11-19T11:04:03;3.47;;;3.17;;
9986;SDS011;5033;46.310;11.214;2023-11-19T11:06:32;3.35;;;3.05;;
9986;SDS011;5033;46.310;11.214;2023-11-19T11:09:00;3.80;;;3.50;;
9986;SDS011;5033;46.310;11.214;2023-11-19T11:11:29;3.85;;;3.50;;
9986;SDS011;5033;46.310;11.214;2023-11-19T11:13:56;3.75;;;3.50;;
9986;SDS011;5033;46.310;11.214;2023-11-19T11:16:26;4.03;;;3.72;;
9986;SDS011;5033;46.310;11.214;2023-11-19T11:18:56;3.42;;;3.22;;
9986;SDS011;5033;46.310;11.214;2023-11-19T11:21:24;3.30;;;3.03;;
9986;SDS011;5033;46.310;11.214;2023-11-19T11:23:56;4.00;;;3.70;;
9986;SDS011;5033;46.310;11.214;2023-11-19T11:26:48;5.53;;;3.80;;
9986;SDS011;5033;46.310;11.214;2023-11-19T11:29:26;3.58;;;3.28;;
9986;SDS011;5033;46.310;11.214;2023-11-19T11:32:04;4.32;;;3.70;;
9986;SDS011;5033;46.310;11.214;2023-11-19T11:34:50;3.60;;;3.30;;
9986;SDS011;5033;46.310;11.214;2023-11-19T11:37:26;3.53;;;3.25;;
9986;SDS011;5033;46.310;11.214;2023-11-19T11:39:58;3.13;;;2.90;;
9986;SDS011;5033;46.310;11.214;2023-11-19T11:42:30;3.30;;;3.00;;
9986;SDS011;5033;46.310;11.214;2023-11-19T11:45:01;3.13;;;2.92;;
9986;SDS011;5033;46.310;11.214;2023-11-19T11:50:48;3.55;;;3.25;;
9986;SDS011;5033;46.310;11.214;2023-11-19T11:53:17;3.50;;;3.28;;
9986;SDS011;5033;46.310;11.214;2023-11-19T11:55:54;4.25;;;3.67;;
9986;SDS011;5033;46.310;11.214;2023-11-19T12:01:10;3.22;;;2.92;;
9986;SDS011;5033;46.310;11.214;2023-11-19T12:03:45;3.10;;;2.80;;
9986;SDS011;5033;46.310;11.214;2023-11-19T12:06:14;3.08;;;2.78;;
9986;SDS011;5033;46.310;11.214;2023-11-19T12:08:41;2.80;;;2.60;;
9986;SDS011;5033;46.310;11.214;2023-11-19T12:11:08;3.03;;;2.83;;
9986;SDS011;5033;46.310;11.214;2023-11-19T12:13:52;3.10;;;2.80;;
9986;SDS011;5033;46.310;11.214;2023-11-19T12:16:21;3.10;;;2.78;;
9986;SDS011;5033;46.310;11.214;2023-11-19T12:18:48;2.75;;;2.55;;
9986;SDS011;5033;46.310;11.214;2023-11-19T12:24:05;2.85;;;2.65;;
9986;SDS011;5033;46.310;11.214;2023-11-19T12:26:33;2.92;;;2.60;;
9986;SDS011;5033;46.310;11.214;2023-11-19T12:29:02;2.60;;;2.40;;
9986;SDS011;5033;46.310;11.214;2023-11-19T12:31:33;2.53;;;2.33;;
9986;SDS011;5033;46.310;11.214;2023-11-19T12:34:08;2.72;;;2.53;;
9986;SDS011;5033;46.310;11.214;2023-11-19T12:36:39;2.65;;;2.45;;
9986;SDS011;5033;46.310;11.214;2023-11-19T12:39:07;2.58;;;2.38;;
9986;SDS011;5033;46.310;11.214;2023-11-19T12:41:53;2.70;;;2.50;;
9986;SDS011;5033;46.310;11.214;2023-11-19T12:44:20;2.65;;;2.45;;
9986;SDS011;5033;46.310;11.214;2023-11-19T12:46:58;2.53;;;2.25;;
9986;SDS011;5033;46.310;11.214;2023-11-19T12:49:26;3.20;;;2.40;;
9986;SDS011;5033;46.310;11.214;2023-11-19T12:51:54;2.58;;;2.38;;
9986;SDS011;5033;46.310;11.214;2023-11-19T12:54:31;2.40;;;2.20;;
9986;SDS011;5033;46.310;11.214;2023-11-19T12:56:58;2.60;;;2.40;;
9986;SDS011;5033;46.310;11.214;2023-11-19T12:59:25;4.47;;;2.50;;
9986;SDS011;5033;46.310;11.214;2023-11-19T13:01:53;2.45;;;2.35;;
9986;SDS011;5033;46.310;11.214;2023-11-19T13:04:21;2.50;;;2.30;;
9986;SDS011;5033;46.310;11.214;2023-11-19T13:06:49;2.30;;;2.10;;
9986;SDS011;5033;46.310;11.214;2023-11-19T13:09:24;2.67;;;2.47;;
9986;SDS011;5033;46.310;11.214;2023-11-19T13:11:52;2.10;;;2.00;;
9986;SDS011;5033;46.310;11.214;2023-11-19T13:14:20;2.25;;;2.15;;
9986;SDS011;5033;46.310;11.214;2023-11-19T13:16:47;2.60;;;2.40;;
9986;SDS011;5033;46.310;11.214;2023-11-19T13:19:14;2.55;;;2.35;;
9986;SDS011;5033;46.310;11.214;2023-11-19T13:21:44;2.85;;;2.63;;
9986;SDS011;5033;46.310;11.214;2023-11-19T13:24:12;2.72;;;2.50;;
9986;SDS011;5033;46.310;11.214;2023-11-19T13:26:41;2.72;;;2.53;;
9986;SDS011;5033;46.310;11.214;2023-11-19T13:29:08;2.72;;;2.53;;
9986;SDS011;5033;46.310;11.214;2023-11-19T13:31:35;3.30;;;3.00;;
9986;SDS011;5033;46.310;11.214;2023-11-19T13:34:03;2.60;;;2.40;;
9986;SDS011;5033;46.310;11.214;2023-11-19T13:36:32;3.15;;;2.42;;
9986;SDS011;5033;46.310;11.214;2023-11-19T13:38:59;2.25;;;2.05;;
9986;SDS011;5033;46.310;11.214;2023-11-19T13:41:26;2.67;;;2.47;;
9986;SDS011;5033;46.310;11.214;2023-11-19T13:43:54;2.40;;;2.20;;
9986;SDS011;5033;46.310;11.214;2023-11-19T13:46:21;2.33;;;2.13;;
9986;SDS011;5033;46.310;11.214;2023-11-19T13:48:48;1.73;;;1.63;;
9986;SDS011;5033;46.310;11.214;2023-11-19T13:51:15;2.28;;;2.08;;
9986;SDS011;5033;46.310;11.214;2023-11-19T13:53:43;2.00;;;1.90;;
9986;SDS011;5033;46.310;11.214;2023-11-19T13:56:09;1.75;;;1.65;;
9986;SDS011;5033;46.310;11.214;2023-11-19T13:58:36;2.55;;;2.35;;
9986;SDS011;5033;46.310;11.214;2023-11-19T14:01:05;2.25;;;2.15;;
9986;SDS011;5033;46.310;11.214;2023-11-19T14:03:32;2.47;;;2.28;;
9986;SDS011;5033;46.310;11.214;2023-11-19T14:05:59;2.30;;;2.20;;
9986;SDS011;5033;46.310;11.214;2023-11-19T14:08:26;2.60;;;2.40;;
9986;SDS011;5033;46.310;11.214;2023-11-19T14:10:53;2.63;;;2.42;;
9986;SDS011;5033;46.310;11.214;2023-11-19T14:13:21;2.30;;;2.20;;
9986;SDS011;5033;46.310;11.214;2023-11-19T14:15:48;2.83;;;2.50;;
9986;SDS011;5033;46.310;11.214;2023-11-19T14:18:17;3.05;;;2.60;;
9986;SDS011;5033;46.310;11.214;2023-11-19T14:20:44;2.85;;;2.58;;
9986;SDS011;5033;46.310;11.214;2023-11-19T14:23:11;3.13;;;2.25;;
9986;SDS011;5033;46.310;11.214;2023-11-19T14:25:38;2.47;;;2.30;;
9986;SDS011;5033;46.310;11.214;2023-11-19T14:28:05;2.78;;;2.53;;
9986;SDS011;5033;46.310;11.214;2023-11-19T14:30:32;2.90;;;2.63;;
9986;SDS011;5033;46.310;11.214;2023-11-19T14:33:00;2.88;;;2.67;;
9986;SDS011;5033;46.310;11.214;2023-11-19T14:35:28;6.30;;;5.70;;
9986;SDS011;5033;46.310;11.214;2023-11-19T14:37:57;10.45;;;8.82;;
9986;SDS011;5033;46.310;11.214;2023-11-19T14:40:24;7.00;;;6.30;;
9986;SDS011;5033;46.310;11.214;2023-11-19T14:42:52;5.85;;;5.35;;
9986;SDS011;5033;46.310;11.214;2023-11-19T14:45:19;4.18;;;3.85;;
9986;SDS011;5033;46.310;11.214;2023-11-19T14:47:45;4.40;;;4.05;;
9986;SDS011;5033;46.310;11.214;2023-11-19T14:50:12;3.28;;;2.97;;
9986;SDS011;5033;46.310;11.214;2023-11-19T14:52:41;3.70;;;3.40;;
9986;SDS011;5033;46.310;11.214;2023-11-19T14:55:08;3.47;;;3.20;;
9986;SDS011;5033;46.310;11.214;2023-11-19T14:57:36;3.45;;;3.15;;
9986;SDS011;5033;46.310;11.214;2023-11-19T15:00:07;2.97;;;2.78;;
9986;SDS011;5033;46.310;11.214;2023-11-19T15:02:38;3.17;;;2.97;;
9986;SDS011;5033;46.310;11.214;2023-11-19T15:05:06;9.82;;;8.15;;
9986;SDS011;5033;46.310;11.214;2023-11-19T15:07:35;13.05;;;10.50;;
9986;SDS011;5033;46.310;11.214;2023-11-19T15:10:04;9.80;;;8.48;;
9986;SDS011;5033;46.310;11.214;2023-11-19T15:12:35;7.25;;;6.50;;
9986;SDS011;5033;46.310;11.214;2023-11-19T15:15:05;5.60;;;5.03;;